Time;durP1;ratioP1;P1;durP2;ratioP2;P2;SDS_P1;SDS_P2;PMS_P1;PMS_P2;Temp;Humidity;BMP_temperature;BMP_pressure;BME280_temperature;BME280_humidity;BME280_pressure;Samples;Min_cycle;Max_cycle;Signal;HPM_P1;HPM_P2
2022/09/28 00:01:50;;;;;;;2.30;2.10;;;;;;;17.25;100.00;97190.38;5092470;28;20259;-58
2022/09/28 00:04:15;;;;;;;6.50;2.88;;;;;;;17.15;100.00;97194.22;5092235;28;20184;-59
2022/09/28 00:06:41;;;;;;;3.28;3.08;;;;;;;17.19;100.00;97192.91;5092132;28;20608;-58
2022/09/28 00:09:06;;;;;;;3.30;2.92;;;;;;;17.12;100.00;97189.31;5092273;28;20218;-58
2022/09/28 00:11:32;;;;;;;2.33;2.13;;;;;;;17.28;100.00;97194.44;5090727;28;20187;-59
2022/09/28 00:14:01;;;;;;;2.72;2.53;;;;;;;17.30;100.00;97192.44;5090774;28;20576;-59
2022/09/28 00:16:32;;;;;;;2.20;2.08;;;;;;;17.31;100.00;97196.72;5092315;28;20680;-58
2022/09/28 00:18:58;;;;;;;2.00;1.88;;;;;;;17.39;100.00;97194.88;5090590;28;20199;-59
2022/09/28 00:21:27;;;;;;;1.70;1.60;;;;;;;17.59;100.00;97192.56;5090794;28;20164;-58
2022/09/28 00:26:42;;;;;;;3.35;1.70;;;;;;;17.53;100.00;97178.38;5092320;28;20607;-59
2022/09/28 00:29:15;;;;;;;1.60;1.55;;;;;;;17.52;100.00;97183.78;5092017;28;20171;-58
2022/09/28 00:31:40;;;;;;;5.40;1.80;;;;;;;17.35;100.00;97182.28;5092081;28;20168;-59
2022/09/28 00:34:06;;;;;;;4.68;1.67;;;;;;;17.27;100.00;97183.19;5092297;28;20615;-59
2022/09/28 00:36:32;;;;;;;1.70;1.60;;;;;;;17.30;100.00;97187.22;5091870;28;20224;-58
2022/09/28 00:38:58;;;;;;;1.40;1.35;;;;;;;17.32;100.00;97186.06;5091821;28;20191;-58
2022/09/28 00:41:25;;;;;;;1.77;1.67;;;;;;;17.40;100.00;97182.59;5091811;28;20175;-59
2022/09/28 00:43:52;;;;;;;1.83;1.50;;;;;;;17.44;100.00;97182.06;5091812;28;20255;-58
2022/09/28 00:46:32;;;;;;;1.70;1.60;;;;;;;17.48;100.00;97179.94;5091773;28;20717;-59
2022/09/28 00:49:04;;;;;;;1.90;1.65;;;;;;;17.38;100.00;97161.84;5091807;28;20564;-59
2022/09/28 00:51:31;;;;;;;1.40;1.40;;;;;;;17.46;100.00;97156.56;5091794;28;20172;-58
2022/09/28 00:53:59;;;;;;;1.75;1.65;;;;;;;17.53;100.00;97151.41;5091720;28;20211;-58
2022/09/28 00:56:29;;;;;;;4.25;1.70;;;;;;;17.50;100.00;97159.63;5091789;28;20215;-58
2022/09/28 00:58:58;;;;;;;2.17;1.23;;;;;;;17.43;100.00;97156.91;5091564;28;20175;-58
2022/09/28 01:01:24;;;;;;;1.88;1.60;;;;;;;17.37;100.00;97162.00;5091662;28;20203;-58
2022/09/28 01:03:50;;;;;;;1.70;1.60;;;;;;;17.37;100.00;97165.44;5091630;28;20235;-58
2022/09/28 01:06:21;;;;;;;1.67;1.55;;;;;;;17.30;100.00;97158.47;5091858;28;20263;-58
2022/09/28 01:08:50;;;;;;;1.90;1.50;;;;;;;17.30;100.00;97159.28;5091711;28;20165;-58
2022/09/28 01:11:18;;;;;;;1.67;1.65;;;;;;;17.25;100.00;97147.75;5091694;28;20228;-58
2022/09/28 01:13:45;;;;;;;2.35;1.52;;;;;;;17.29;100.00;97154.22;5091483;28;20176;-58
2022/09/28 01:16:22;;;;;;;2.80;1.52;;;;;;;17.29;100.00;97154.22;5091473;28;20172;-59
2022/09/28 01:18:53;;;;;;;1.30;1.30;;;;;;;17.33;100.00;97151.09;5091863;28;20194;-58
2022/09/28 01:21:21;;;;;;;1.40;1.33;;;;;;;17.38;100.00;97148.78;5095425;28;20177;-58
2022/09/28 01:24:09;;;;;;;2.15;1.52;;;;;;;17.39;100.00;97162.66;5095235;28;20181;-59
2022/09/28 01:27:00;;;;;;;1.70;1.60;;;;;;;17.41;100.00;97158.06;5095350;28;20164;-58
2022/09/28 01:29:33;;;;;;;1.50;1.50;;;;;;;17.42;100.00;97159.69;5095098;28;20160;-58
2022/09/28 01:32:27;;;;;;;2.03;1.45;;;;;;;17.40;100.00;97159.06;5094939;28;20157;-58
2022/09/28 01:35:04;;;;;;;1.73;1.63;;;;;;;17.28;100.00;97148.19;5085066;28;20192;-58
2022/09/28 01:37:43;;;;;;;1.63;1.52;;;;;;;17.25;100.00;97147.75;5095124;28;20156;-59
2022/09/28 01:40:12;;;;;;;1.90;1.80;;;;;;;17.23;100.00;97147.09;5094964;28;20188;-59
2022/09/28 01:42:42;;;;;;;1.67;1.40;;;;;;;17.21;100.00;97144.66;5094702;28;20658;-59
2022/09/28 01:45:21;;;;;;;2.70;1.50;;;;;;;17.27;100.00;97145.75;5094945;28;20176;-58
2022/09/28 01:47:49;;;;;;;1.75;1.65;;;;;;;17.34;100.00;97144.06;5094769;28;20159;-58
2022/09/28 01:50:22;;;;;;;1.90;1.80;;;;;;;17.44;100.00;97136.81;5094610;28;20164;-58
2022/09/28 01:52:58;;;;;;;1.70;1.60;;;;;;;17.55;100.00;97144.22;5095006;28;20168;-58
2022/09/28 01:55:24;;;;;;;2.78;1.50;;;;;;;17.64;100.00;97143.94;5094765;28;20163;-58
2022/09/28 01:57:55;;;;;;;1.52;1.42;;;;;;;17.69;100.00;97140.78;5094438;28;20649;-58
2022/09/28 02:00:23;;;;;;;2.33;1.27;;;;;;;17.71;100.00;97136.19;5093063;28;20274;-58
2022/09/28 02:03:09;;;;;;;1.98;1.50;;;;;;;17.76;100.00;97150.38;5094347;28;20199;-59
2022/09/28 02:05:38;;;;;;;5.18;1.70;;;;;;;17.83;100.00;97151.25;5094625;28;20526;-59
2022/09/28 02:08:20;;;;;;;9.35;1.83;;;;;;;17.70;100.00;97151.09;5094273;28;20225;-59
2022/09/28 02:10:51;;;;;;;1.42;1.40;;;;;;;17.69;100.00;97157.31;5094316;28;20647;-58
2022/09/28 02:13:27;;;;;;;1.70;1.60;;;;;;;17.69;100.00;97151.25;5094140;28;20671;-59
2022/09/28 02:16:18;;;;;;;4.30;1.48;;;;;;;17.68;100.00;97155.69;5094394;28;20184;-59
2022/09/28 02:18:45;;;;;;;3.42;1.63;;;;;;;17.59;100.00;97155.94;5090816;28;20249;-58
2022/09/28 02:21:16;;;;;;;2.40;1.80;;;;;;;17.43;100.00;97164.75;5093863;28;20203;-59
2022/09/28 02:23:51;;;;;;;4.07;1.77;;;;;;;17.39;100.00;97160.06;5094175;28;20213;-59
2022/09/28 02:26:22;;;;;;;1.77;1.52;;;;;;;17.30;100.00;97159.28;5094074;28;20167;-59
2022/09/28 02:28:47;;;;;;;3.05;1.50;;;;;;;17.31;100.00;97147.03;5094136;28;20187;-59
2022/09/28 02:31:12;;;;;;;1.73;1.45;;;;;;;17.16;100.00;97152.22;5093909;28;20203;-59
2022/09/28 02:33:42;;;;;;;1.38;1.38;;;;;;;17.06;100.00;97151.66;5093738;28;20229;-59
2022/09/28 02:36:08;;;;;;;3.60;1.33;;;;;;;16.95;100.00;97149.44;5093668;28;20633;-59
2022/09/28 02:38:35;;;;;;;2.00;1.90;;;;;;;16.90;100.00;97149.16;5093655;28;20182;-59
2022/09/28 02:41:16;;;;;;;1.60;1.50;;;;;;;16.88;100.00;97152.94;5093731;28;20253;-59
2022/09/28 02:44:13;;;;;;;2.65;1.65;;;;;;;16.89;100.00;97144.09;5093563;28;20166;-59
2022/09/28 02:46:45;;;;;;;1.73;1.63;;;;;;;16.82;100.00;97151.84;5093700;28;20174;-58
2022/09/28 02:49:29;;;;;;;2.08;1.75;;;;;;;16.86;100.00;97158.31;5094017;28;20180;-58
2022/09/28 02:52:25;;;;;;;1.98;1.88;;;;;;;16.87;100.00;97159.16;5093986;28;20629;-58
2022/09/28 02:55:32;;;;;;;1.67;1.50;;;;;;;16.87;100.00;97152.13;5093332;28;20168;-58
2022/09/28 02:58:23;;;;;;;1.50;1.40;;;;;;;16.95;100.00;97156.47;5093454;28;20163;-58
2022/09/28 03:01:03;;;;;;;1.60;1.40;;;;;;;17.12;100.00;97157.97;5093391;28;20683;-59
2022/09/28 03:04:07;;;;;;;2.08;1.60;;;;;;;17.15;100.00;97163.66;5093245;28;20243;-58
2022/09/28 03:06:39;;;;;;;1.98;1.80;;;;;;;17.17;100.00;97159.09;5086837;28;20199;-58
2022/09/28 03:09:39;;;;;;;3.35;1.70;;;;;;;17.19;100.00;97158.91;5093053;28;20621;-58
2022/09/28 03:12:15;;;;;;;1.80;1.70;;;;;;;17.33;100.00;97160.75;5093035;28;20746;-58
2022/09/28 03:14:40;;;;;;;2.30;2.10;;;;;;;17.40;100.00;97157.28;5093182;28;20188;-58
2022/09/28 03:17:06;;;;;;;2.42;2.22;;;;;;;17.36;100.00;97162.97;5093029;28;20330;-58
2022/09/28 03:19:33;;;;;;;5.65;3.05;;;;;;;17.34;100.00;97162.34;5092870;28;20223;-58
2022/09/28 03:21:59;;;;;;;2.10;2.00;;;;;;;17.34;100.00;97164.97;5092769;28;20194;-58
2022/09/28 03:24:24;;;;;;;3.92;3.40;;;;;;;17.30;100.00;97158.47;5093002;28;20180;-58
2022/09/28 03:26:50;;;;;;;6.72;2.92;;;;;;;17.23;100.00;97160.16;5092757;28;20194;-58
2022/09/28 03:29:15;;;;;;;5.47;3.47;;;;;;;16.68;100.00;97154.38;5093010;28;20222;-59
2022/09/28 03:31:42;;;;;;;7.53;3.78;;;;;;;16.67;100.00;97158.00;5092696;28;20204;-59
2022/09/28 03:34:08;;;;;;;8.98;4.50;;;;;;;16.40;100.00;97172.34;5092596;28;20254;-59
2022/09/28 03:36:34;;;;;;;7.10;3.97;;;;;;;16.27;100.00;97166.00;5092579;28;20301;-58
2022/09/28 03:38:59;;;;;;;6.22;4.57;;;;;;;16.09;100.00;97158.41;5091296;28;20180;-59
2022/09/28 03:41:26;;;;;;;10.50;4.90;;;;;;;15.97;100.00;97167.56;5092396;28;20203;-58
2022/09/28 03:43:52;;;;;;;15.68;4.88;;;;;;;15.72;100.00;97167.81;5092359;28;20171;-58
2022/09/28 03:46:18;;;;;;;11.05;4.90;;;;;;;15.90;100.00;97171.03;5092675;28;20175;-58
2022/09/28 03:48:43;;;;;;;26.70;6.30;;;;;;;15.88;100.00;97175.59;5092383;28;20172;-58
2022/09/28 03:51:10;;;;;;;11.85;6.25;;;;;;;15.95;100.00;97181.78;5092375;28;20168;-58
2022/09/28 03:53:36;;;;;;;7.82;4.80;;;;;;;16.00;100.00;97190.75;5092569;28;20176;-58
2022/09/28 03:56:13;;;;;;;7.50;4.30;;;;;;;15.89;100.00;97178.06;5092409;28;20249;-58
2022/09/28 03:58:39;;;;;;;8.10;3.67;;;;;;;15.91;100.00;97183.91;5092351;28;20159;-58
2022/09/28 04:01:07;;;;;;;6.30;3.88;;;;;;;16.11;100.00;97179.13;5092181;28;20196;-58
2022/09/28 04:03:33;;;;;;;7.90;3.88;;;;;;;15.95;100.00;97187.81;5092166;28;20675;-58
2022/09/28 04:05:58;;;;;;;6.40;3.95;;;;;;;15.99;100.00;97177.84;5092160;28;20251;-58
2022/09/28 04:08:24;;;;;;;6.80;3.22;;;;;;;15.99;100.00;97183.91;5092129;28;20210;-58
2022/09/28 04:10:49;;;;;;;5.25;3.30;;;;;;;15.93;100.00;97188.97;5092329;28;20219;-58
2022/09/28 04:13:15;;;;;;;3.15;2.53;;;;;;;16.22;100.00;97182.16;5092135;28;20164;-58
2022/09/28 04:15:41;;;;;;;2.20;2.10;;;;;;;16.26;100.00;97175.63;5090768;28;20176;-58
2022/09/28 04:18:11;;;;;;;2.80;2.50;;;;;;;16.37;100.00;97179.63;5092328;28;20176;-58
2022/09/28 04:20:38;;;;;;;3.45;3.17;;;;;;;16.31;100.00;97173.31;5091910;28;20199;-58
2022/09/28 04:23:04;;;;;;;3.00;2.78;;;;;;;16.32;100.00;97180.16;5091987;28;20203;-58
2022/09/28 04:25:29;;;;;;;2.75;2.35;;;;;;;16.32;100.00;97180.16;5092291;28;20196;-58
2022/09/28 04:30:39;;;;;;;1.88;1.77;;;;;;;16.34;100.00;97187.81;5092339;28;20286;-58
2022/09/28 04:33:04;;;;;;;2.30;2.10;;;;;;;16.30;100.00;97189.13;5092182;28;20250;-58
2022/09/28 04:35:29;;;;;;;1.80;1.70;;;;;;;16.27;100.00;97192.09;5091824;28;20172;-58
2022/09/28 04:37:55;;;;;;;2.35;1.83;;;;;;;16.28;100.00;97178.06;5092004;28;20164;-58
2022/09/28 04:40:20;;;;;;;1.50;1.40;;;;;;;16.40;100.00;97193.22;5092010;28;20768;-58
2022/09/28 04:42:53;;;;;;;5.25;1.60;;;;;;;16.45;100.00;97182.25;5091824;28;20208;-58
2022/09/28 04:45:19;;;;;;;2.40;1.60;;;;;;;16.56;100.00;97194.94;5091753;28;20164;-58
2022/09/28 04:47:44;;;;;;;1.70;1.50;;;;;;;16.63;100.00;97203.72;5091759;28;20168;-57
2022/09/28 04:50:10;;;;;;;2.65;1.50;;;;;;;16.73;100.00;97209.53;5091877;28;20165;-58
2022/09/28 04:52:36;;;;;;;4.03;1.75;;;;;;;16.72;100.00;97208.72;5092000;28;20274;-58
2022/09/28 04:55:02;;;;;;;3.70;2.75;;;;;;;16.79;100.00;97229.75;5093738;28;20314;-58
2022/09/28 04:57:27;;;;;;;7.60;3.80;;;;;;;16.79;100.00;97232.34;5094367;28;20266;-58
2022/09/28 04:59:53;;;;;;;9.95;4.50;;;;;;;16.81;100.00;97239.03;5095453;28;20191;-58
2022/09/28 05:02:19;;;;;;;10.88;5.65;;;;;;;16.91;100.00;97244.84;5095960;28;20167;-58
2022/09/28 05:04:44;;;;;;;12.13;5.65;;;;;;;16.98;100.00;97256.25;5095728;28;20218;-58
2022/09/28 05:07:10;;;;;;;10.85;5.57;;;;;;;17.07;100.00;97268.25;5095623;28;20704;-58
2022/09/28 05:09:35;;;;;;;7.60;5.53;;;;;;;17.18;100.00;97269.66;5095379;28;20164;-58
2022/09/28 05:12:00;;;;;;;8.00;4.95;;;;;;;17.19;100.00;97263.47;5095227;28;20238;-58
2022/09/28 05:14:26;;;;;;;12.27;5.47;;;;;;;17.17;100.00;97257.59;5095559;28;20163;-58
2022/09/28 05:16:51;;;;;;;8.52;5.43;;;;;;;17.15;100.00;97249.13;5095216;28;20172;-58
2022/09/28 05:19:17;;;;;;;9.60;5.85;;;;;;;17.21;100.00;97261.47;5095105;28;20278;-58
2022/09/28 05:21:45;;;;;;;10.00;5.47;;;;;;;17.22;100.00;97263.94;5095203;28;20250;-58
2022/09/28 05:24:11;;;;;;;8.52;5.53;;;;;;;17.25;100.00;97254.94;5095045;28;20176;-58
2022/09/28 05:26:37;;;;;;;8.02;5.57;;;;;;;17.29;100.00;97257.00;5095104;28;20691;-58
2022/09/28 05:29:02;;;;;;;4.32;2.55;;;;;;;17.27;100.00;97250.34;5095083;28;20183;-58
2022/09/28 05:31:27;;;;;;;4.25;2.80;;;;;;;17.25;100.00;97252.31;5095075;28;20171;-58
2022/09/28 05:33:53;;;;;;;6.68;3.45;;;;;;;17.37;100.00;97245.69;5095071;28;20167;-58
2022/09/28 05:36:19;;;;;;;6.40;3.35;;;;;;;17.41;100.00;97254.81;5094820;28;20171;-58
2022/09/28 05:38:45;;;;;;;5.68;4.45;;;;;;;17.44;100.00;97254.50;5094873;28;20255;-58
2022/09/28 05:41:11;;;;;;;5.18;4.65;;;;;;;17.54;100.00;97244.59;5094985;28;20196;-58
2022/09/28 05:43:37;;;;;;;13.20;5.47;;;;;;;17.59;100.00;97252.72;5094457;28;20671;-58
2022/09/28 05:46:03;;;;;;;4.15;2.22;;;;;;;17.69;100.00;97246.25;5094622;28;20182;-59
2022/09/28 05:48:29;;;;;;;2.38;1.40;;;;;;;17.79;100.00;97241.56;5094594;28;20609;-58
2022/09/28 05:50:55;;;;;;;3.30;1.33;;;;;;;17.87;100.00;97253.78;5094883;28;20167;-58
2022/09/28 05:53:21;;;;;;;1.20;1.10;;;;;;;17.86;100.00;97260.00;5094454;28;20274;-58
2022/09/28 05:55:46;;;;;;;1.52;1.17;;;;;;;17.94;100.00;97254.69;5094257;28;20172;-58
2022/09/28 05:58:11;;;;;;;4.78;1.20;;;;;;;17.91;100.00;97262.91;5094483;28;20240;-58
2022/09/28 06:00:37;;;;;;;3.65;1.48;;;;;;;17.95;100.00;97258.94;5094307;28;20196;-58
2022/09/28 06:03:09;;;;;;;7.78;4.53;;;;;;;18.04;100.00;97276.19;5094328;28;20171;-57
2022/09/28 06:05:35;;;;;;;3.88;3.40;;;;;;;18.08;100.00;97277.47;5093877;28;20179;-58
2022/09/28 06:08:03;;;;;;;1.13;1.13;;;;;;;18.15;100.00;97275.75;5093556;28;20197;-57
2022/09/28 06:10:28;;;;;;;1.42;1.33;;;;;;;18.24;100.00;97269.44;5094396;28;20191;-58
2022/09/28 06:12:55;;;;;;;1.33;1.23;;;;;;;18.41;100.00;97270.94;5094170;28;20171;-57
2022/09/28 06:15:22;;;;;;;2.00;1.80;;;;;;;18.44;100.00;97273.16;5094096;28;20182;-58
2022/09/28 06:17:57;;;;;;;2.63;1.30;;;;;;;18.53;100.00;97275.50;5094079;28;20206;-57
2022/09/28 06:20:27;;;;;;;2.13;1.30;;;;;;;18.59;100.00;97274.78;5093918;28;20211;-57
2022/09/28 06:22:53;;;;;;;2.38;1.98;;;;;;;18.63;100.00;97272.59;5093838;28;20191;-58
2022/09/28 06:25:20;;;;;;;11.88;5.60;;;;;;;18.75;100.00;97279.81;5093945;28;20172;-58
2022/09/28 06:28:00;;;;;;;17.33;5.47;;;;;;;18.92;100.00;97276.00;5092606;28;20178;-58
2022/09/28 06:30:27;;;;;;;8.57;5.13;;;;;;;19.19;100.00;97292.84;5093974;28;20156;-58
2022/09/28 06:32:57;;;;;;;7.10;4.30;;;;;;;19.45;100.00;97287.88;5093847;28;20167;-58
2022/09/28 06:35:24;;;;;;;11.30;5.07;;;;;;;19.64;100.00;97290.69;5093720;28;20163;-58
2022/09/28 06:37:51;;;;;;;15.25;4.80;;;;;;;19.74;100.00;97290.38;5092418;28;20252;-58
2022/09/28 06:40:17;;;;;;;13.05;5.90;;;;;;;19.76;100.00;97288.38;5092269;28;20716;-58
2022/09/28 06:42:43;;;;;;;7.18;3.55;;;;;;;19.68;100.00;97291.94;5092285;28;20183;-58
2022/09/28 06:45:09;;;;;;;10.05;3.70;;;;;;;19.65;100.00;97294.94;5093590;28;20168;-58
2022/09/28 06:47:36;;;;;;;9.95;4.00;;;;;;;19.70;100.00;97287.31;5093736;28;20168;-58
2022/09/28 06:50:01;;;;;;;11.02;4.13;;;;;;;19.85;100.00;97288.06;5093694;28;20225;-58
2022/09/28 06:52:27;;;;;;;8.30;3.80;;;;;;;19.90;100.00;97290.94;5093689;28;20172;-58
2022/09/28 06:54:52;;;;;;;8.18;4.53;;;;;;;20.00;100.00;97293.22;5093412;28;20170;-58
2022/09/28 06:57:18;;;;;;;11.48;3.83;;;;;;;20.08;100.00;97293.09;5093278;28;20179;-58
2022/09/28 06:59:43;;;;;;;10.95;3.92;;;;;;;20.15;100.00;97294.78;5093421;28;20278;-58
2022/09/28 07:02:15;;;;;;;6.82;3.60;;;;;;;20.22;100.00;97294.84;5093251;28;20254;-58
2022/09/28 07:04:41;;;;;;;7.35;3.25;;;;;;;20.26;100.00;97298.69;5093177;28;20622;-58
2022/09/28 07:07:10;;;;;;;1.73;1.60;;;;;;;20.28;100.00;97304.56;5093075;28;20614;-58
2022/09/28 07:09:36;;;;;;;1.83;1.73;;;;;;;20.30;100.00;97307.81;5093102;28;20193;-58
2022/09/28 07:12:08;;;;;;;5.70;1.10;;;;;;;20.39;100.00;97304.84;5093008;28;20696;-57
2022/09/28 07:14:34;;;;;;;5.55;1.42;;;;;;;20.48;100.00;97308.13;5092985;28;20250;-58
2022/09/28 07:16:59;;;;;;;3.55;1.38;;;;;;;20.51;100.00;97311.19;5092512;28;20262;-57
2022/09/28 07:19:26;;;;;;;3.22;1.85;;;;;;;20.54;100.00;97304.72;5092916;28;20183;-57
2022/09/28 07:21:51;;;;;;;2.50;2.30;;;;;;;20.60;100.00;97304.78;5093089;28;20190;-57
2022/09/28 07:24:17;;;;;;;3.28;2.20;;;;;;;20.69;100.00;97302.81;5092905;28;20163;-58
2022/09/28 07:26:44;;;;;;;3.03;2.17;;;;;;;20.73;100.00;97309.28;5092814;28;20175;-57
2022/09/28 07:29:10;;;;;;;4.38;2.25;;;;;;;20.78;100.00;97301.63;5092979;28;20258;-58
2022/09/28 07:31:36;;;;;;;2.53;2.33;;;;;;;20.84;100.00;97304.28;5092952;28;20187;-58
2022/09/28 07:34:02;;;;;;;4.05;2.25;;;;;;;20.80;100.00;97291.72;5092890;28;20175;-58
2022/09/28 07:36:29;;;;;;;3.10;2.13;;;;;;;20.88;100.00;97291.56;5092550;28;20266;-58
2022/09/28 07:38:54;;;;;;;1.88;1.77;;;;;;;20.96;100.00;97291.41;5092630;28;20171;-58
2022/09/28 07:41:31;;;;;;;7.60;1.90;;;;;;;21.04;100.00;97288.63;5092544;28;20188;-58
2022/09/28 07:44:06;;;;;;;2.60;1.95;;;;;;;21.14;100.00;97291.66;5092860;28;20155;-58
2022/09/28 07:46:33;;;;;;;5.40;2.17;;;;;;;21.20;100.00;97286.44;5092754;28;20164;-57
2022/09/28 07:48:58;;;;;;;2.25;2.00;;;;;;;21.31;100.00;97287.66;5092658;28;20617;-58
2022/09/28 07:51:24;;;;;;;2.17;2.05;;;;;;;21.40;100.00;97294.38;5092646;28;20688;-58
2022/09/28 07:53:49;;;;;;;8.98;4.00;;;;;;;21.42;100.00;97295.00;5092362;28;20667;-58
2022/09/28 07:56:17;;;;;;;5.93;4.05;;;;;;;21.42;100.00;97285.28;5092363;28;20551;-58
2022/09/28 07:58:42;;;;;;;7.47;3.55;;;;;;;21.42;100.00;97280.03;5092307;28;20209;-58
2022/09/28 08:01:10;;;;;;;4.80;3.42;;;;;;;21.52;100.00;97285.72;5092153;28;20287;-58
2022/09/28 08:03:37;;;;;;;5.63;2.80;;;;;;;21.59;100.00;97285.69;5092240;28;20176;-58
2022/09/28 08:06:06;;;;;;;4.75;2.45;;;;;;;21.69;100.00;97286.16;5092191;28;20176;-58
2022/09/28 08:08:34;;;;;;;2.80;2.60;;;;;;;21.64;100.00;97284.09;5092419;28;20180;-58
2022/09/28 08:11:01;;;;;;;3.33;3.03;;;;;;;21.58;100.00;97289.34;5092336;28;20199;-58
2022/09/28 08:13:26;;;;;;;6.80;3.10;;;;;;;21.67;100.00;97294.25;5092155;28;20186;-58
2022/09/28 08:15:53;;;;;;;2.95;2.75;;;;;;;21.78;100.00;97296.28;5092700;28;20172;-58
2022/09/28 08:18:19;;;;;;;2.63;2.42;;;;;;;21.70;100.00;97293.03;5092057;28;20203;-58
2022/09/28 08:23:29;;;;;;;5.40;3.08;;;;;;;21.74;100.00;97307.44;5092218;28;20229;-58
2022/09/28 08:25:54;;;;;;;3.13;2.92;;;;;;;21.80;100.00;97296.09;5092009;28;20176;-58
2022/09/28 08:28:21;;;;;;;3.20;2.70;;;;;;;21.97;100.00;97292.84;5093204;28;20171;-58
2022/09/28 08:30:47;;;;;;;2.85;2.70;;;;;;;22.10;100.00;97298.13;5096192;28;20180;-58
2022/09/28 08:33:14;;;;;;;2.83;2.53;;;;;;;22.21;100.00;97299.34;5096374;28;20171;-58
2022/09/28 08:35:40;;;;;;;3.42;2.60;;;;;;;22.31;100.00;97302.38;5096027;28;20754;-58
2022/09/28 08:38:07;;;;;;;2.42;2.22;;;;;;;22.42;100.00;97301.72;5096323;28;20330;-58
2022/09/28 08:40:46;;;;;;;2.60;2.40;;;;;;;22.50;100.00;97302.34;5096199;28;20234;-58
2022/09/28 08:43:41;;;;;;;2.78;2.63;;;;;;;22.56;100.00;97292.81;5094667;28;20648;-58
2022/09/28 08:46:09;;;;;;;4.35;2.28;;;;;;;22.65;100.00;97299.47;5084685;28;20192;-58
2022/09/28 08:48:52;;;;;;;3.08;2.65;;;;;;;22.66;100.00;97293.19;5095819;28;20708;-58
2022/09/28 08:51:32;;;;;;;2.40;2.20;;;;;;;22.80;100.00;97297.41;5095843;28;20164;-58
2022/09/28 08:54:27;;;;;;;2.78;2.58;;;;;;;22.77;100.00;97308.34;5095761;28;20174;-58
2022/09/28 08:57:04;;;;;;;3.50;2.65;;;;;;;22.76;100.00;97296.19;5122776;27;20180;-58
2022/09/28 08:59:48;;;;;;;3.10;2.50;;;;;;;22.87;100.00;97287.63;5095772;28;20164;-58
2022/09/28 09:02:24;;;;;;;3.60;2.63;;;;;;;22.93;99.95;97287.63;5095580;28;20172;-58
2022/09/28 09:04:51;;;;;;;2.70;2.50;;;;;;;23.02;99.08;97296.09;5095710;28;20205;-58
2022/09/28 09:07:47;;;;;;;3.00;2.63;;;;;;;23.12;96.95;97302.53;5095503;28;20248;-58
2022/09/28 09:10:36;;;;;;;2.95;2.75;;;;;;;23.18;96.75;97293.81;5095337;28;20176;-58
2022/09/28 09:13:36;;;;;;;3.90;2.58;;;;;;;23.20;95.19;97298.91;5095418;28;20641;-58
2022/09/28 09:16:31;;;;;;;3.00;2.17;;;;;;;23.29;95.36;97300.25;5095266;28;20168;-58
2022/09/28 09:19:21;;;;;;;2.80;2.60;;;;;;;23.40;93.70;97299.59;5095355;28;20164;-58
2022/09/28 09:21:57;;;;;;;2.90;2.70;;;;;;;23.50;94.82;97308.69;5095518;28;20160;-58
2022/09/28 09:24:41;;;;;;;4.53;2.72;;;;;;;23.59;93.42;97309.25;5095186;28;20246;-58
2022/09/28 09:27:28;;;;;;;3.42;2.72;;;;;;;23.67;93.42;97311.63;5128512;27;20195;-58
2022/09/28 09:30:05;;;;;;;2.67;2.30;;;;;;;23.78;93.11;97309.09;5095368;28;20167;-58
2022/09/28 09:32:55;;;;;;;2.80;2.60;;;;;;;23.84;91.72;97311.69;5094995;28;20171;-58
2022/09/28 09:35:36;;;;;;;4.35;2.38;;;;;;;23.90;90.32;97311.91;5095166;28;20676;-58
2022/09/28 09:38:10;;;;;;;2.33;2.22;;;;;;;23.89;88.79;97318.22;5095264;28;20148;-58
2022/09/28 09:41:13;;;;;;;2.80;2.55;;;;;;;23.77;88.61;97316.22;5094303;28;20252;-58
2022/09/28 09:44:11;;;;;;;2.75;2.22;;;;;;;23.67;89.80;97308.97;5094714;28;20179;-58
2022/09/28 09:46:41;;;;;;;2.90;2.70;;;;;;;23.63;91.89;97310.41;5093269;28;20210;-58
2022/09/28 09:49:25;;;;;;;5.18;2.33;;;;;;;23.64;91.16;97312.84;5094653;28;20704;-58
2022/09/28 09:52:05;;;;;;;6.97;2.35;;;;;;;23.63;90.37;97318.34;5094861;28;20552;-58
2022/09/28 09:54:58;;;;;;;2.20;2.00;;;;;;;23.60;90.13;97310.84;5094600;28;20262;-58
2022/09/28 09:57:38;;;;;;;5.82;2.60;;;;;;;23.56;89.00;97315.75;5091767;27;20274;-58
2022/09/28 10:00:12;;;;;;;2.55;2.35;;;;;;;23.52;88.05;97316.38;5094582;28;20237;-58
2022/09/28 10:02:38;;;;;;;2.65;2.45;;;;;;;23.38;87.11;97314.84;5094764;28;20256;-58
2022/09/28 10:05:12;;;;;;;2.67;2.22;;;;;;;23.50;85.69;97316.59;5094687;28;20619;-58
2022/09/28 10:08:08;;;;;;;6.13;2.65;;;;;;;23.55;86.55;97310.69;5094591;28;20182;-58
2022/09/28 10:10:33;;;;;;;3.30;2.72;;;;;;;23.52;87.48;97313.72;5094488;28;20231;-57
2022/09/28 10:12:59;;;;;;;3.13;2.58;;;;;;;23.41;87.83;97301.19;5094194;28;20699;-58
2022/09/28 10:15:27;;;;;;;5.82;2.58;;;;;;;23.48;87.58;97299.34;5127098;27;20171;-58
2022/09/28 10:18:13;;;;;;;2.30;2.20;;;;;;;23.39;87.64;97290.06;5094101;28;20178;-58
2022/09/28 10:20:41;;;;;;;8.95;2.60;;;;;;;23.45;89.04;97297.13;5092653;28;20211;-58
2022/09/28 10:23:16;;;;;;;5.30;2.53;;;;;;;23.40;89.79;97294.31;5093979;28;20199;-58
2022/09/28 10:25:45;;;;;;;4.55;2.10;;;;;;;23.39;90.96;97297.97;5094266;28;20155;-59
2022/09/28 10:28:18;;;;;;;5.10;2.33;;;;;;;23.37;91.36;97292.91;5094090;28;20206;-59
2022/09/28 10:30:43;;;;;;;3.42;2.67;;;;;;;23.43;88.83;97288.63;5092667;28;20182;-59
2022/09/28 10:33:30;;;;;;;3.35;2.63;;;;;;;23.42;87.79;97287.78;5092571;28;20630;-59
2022/09/28 10:35:57;;;;;;;5.53;2.65;;;;;;;23.35;88.65;97289.66;5093687;28;20721;-59
2022/09/28 10:38:23;;;;;;;2.63;2.42;;;;;;;23.24;90.06;97279.78;5093754;28;20207;-59
2022/09/28 10:40:48;;;;;;;3.95;2.60;;;;;;;23.34;93.85;97279.31;5093872;28;20223;-59
2022/09/28 10:43:33;;;;;;;3.30;2.55;;;;;;;23.28;92.97;97280.97;5093649;28;20616;-59
2022/09/28 10:46:20;;;;;;;2.78;2.50;;;;;;;23.21;94.15;97287.31;5093577;28;20229;-59
2022/09/28 10:48:55;;;;;;;2.83;2.60;;;;;;;23.19;95.56;97282.25;5093368;28;20180;-59
2022/09/28 10:51:42;;;;;;;6.20;2.63;;;;;;;23.15;96.51;97285.47;5092954;28;20147;-59
2022/09/28 10:54:15;;;;;;;6.07;2.90;;;;;;;23.15;94.45;97280.19;5093620;28;20167;-59
2022/09/28 10:56:41;;;;;;;2.78;2.28;;;;;;;23.14;93.68;97271.47;5093360;28;20156;-59
2022/09/28 10:59:29;;;;;;;4.07;2.17;;;;;;;23.12;95.33;97267.41;5093572;28;20179;-59
2022/09/28 11:02:02;;;;;;;2.53;2.28;;;;;;;23.15;95.31;97264.38;5090180;28;20278;-59
2022/09/28 11:04:33;;;;;;;3.40;2.67;;;;;;;23.17;95.91;97257.91;5093835;28;20247;-59
2022/09/28 11:07:00;;;;;;;6.15;2.60;;;;;;;23.23;96.37;97262.31;5093223;28;20212;-59
2022/09/28 11:09:29;;;;;;;5.50;2.70;;;;;;;23.31;95.46;97253.34;5093713;28;20190;-59
2022/09/28 11:12:00;;;;;;;3.55;2.83;;;;;;;23.29;94.69;97255.38;5093041;28;20199;-59
2022/09/28 11:14:34;;;;;;;3.80;2.88;;;;;;;23.26;93.41;97255.81;5093344;28;20220;-59
2022/09/28 11:17:28;;;;;;;3.75;2.72;;;;;;;23.18;94.61;97241.03;5093009;28;20243;-59
2022/09/28 11:19:56;;;;;;;4.40;2.47;;;;;;;23.19;95.09;97236.56;5092760;28;20207;-58
2022/09/28 11:22:29;;;;;;;4.90;2.80;;;;;;;23.13;95.16;97227.63;5092928;28;20176;-58
2022/09/28 11:25:21;;;;;;;2.63;2.42;;;;;;;23.08;96.60;97226.66;5093063;28;20602;-58
2022/09/28 11:27:49;;;;;;;6.85;2.70;;;;;;;23.08;98.25;97226.66;5092917;28;20214;-58
2022/09/28 11:30:24;;;;;;;2.75;2.40;;;;;;;23.06;98.59;97220.75;5092981;28;20221;-57
2022/09/28 11:32:51;;;;;;;4.60;2.70;;;;;;;23.06;99.36;97224.22;5092717;28;20214;-58
2022/09/28 11:35:27;;;;;;;3.75;2.55;;;;;;;23.07;100.00;97214.50;5092629;28;20171;-58
2022/09/28 11:38:19;;;;;;;9.20;3.38;;;;;;;23.30;99.67;97220.84;5092773;28;20213;-57
2022/09/28 11:41:01;;;;;;;5.07;3.40;;;;;;;23.48;100.00;97204.28;5092567;28;20260;-58
2022/09/28 11:43:38;;;;;;;3.13;2.80;;;;;;;23.60;100.00;97211.28;5092546;28;20160;-58
2022/09/28 11:46:28;;;;;;;4.38;3.00;;;;;;;23.75;96.19;97209.94;5092477;28;20683;-58
2022/09/28 11:48:59;;;;;;;5.78;2.85;;;;;;;23.73;90.87;97206.72;5092992;28;20305;-58
2022/09/28 11:51:35;;;;;;;2.60;2.40;;;;;;;23.94;90.96;97213.47;5092954;28;20156;-58
2022/09/28 11:54:13;;;;;;;5.22;2.42;;;;;;;24.17;91.72;97210.22;5092783;28;20175;-58
2022/09/28 11:56:49;;;;;;;3.15;2.00;;;;;;;24.42;86.08;97211.75;5092593;28;20187;-58